Capitol Logistics 7493

Operating for MZN



KPHX
Phoenix Sky Harbor International Airport
Phoenix, Arizona
KBWI
Baltimore/Washington International Thurgood Marshall Airport
Baltimore, Maryland

Activity Log

Date Flight Route Aircraft Duration
No Flights Yet

Route Details

Aircraft Information
Primary: Boeing 767-300BDSF
Backup: Boeing 757-200SF
Route Data
Distance: 1997nm
Duration: 3h 31m
Recm'd Route: BROAK1 MAXXO ACH J231 LBL J19 STL VHP APE AIR KEMAN ANTHM3
Origin Wx: KPHX 180151Z 30011KT 10SM SCT150 28/M07 A2977 RMK AO2 SLP068 T02781072
Dest. Wx: KBWI 180154Z 28004KT 10SM FEW110 SCT200 11/03 A2986 RMK AO2 SLP109 T01110033
Notes: